createdAt,value
2022-10-19T00:02:39.227Z,85.45
2022-10-19T00:05:22.609Z,85.19
2022-10-19T00:08:06.670Z,85.70
2022-10-19T00:10:50.201Z,85.83
2022-10-19T00:13:33.972Z,84.82
2022-10-19T00:16:18.843Z,84.91
2022-10-19T00:19:07.443Z,86.38
2022-10-19T00:21:51.742Z,85.23
2022-10-19T00:24:35.224Z,84.99
2022-10-19T00:27:18.650Z,85.38
2022-10-19T00:30:02.043Z,85.40
2022-10-19T00:32:45.422Z,84.21
2022-10-19T00:35:28.818Z,84.66
2022-10-19T00:38:12.188Z,84.20
2022-10-19T00:40:56.656Z,84.18
2022-10-19T00:43:53.144Z,84.70
2022-10-19T00:46:44.542Z,85.55
2022-10-19T00:49:34.435Z,85.70
2022-10-19T00:52:23.155Z,85.28
2022-10-19T00:55:09.136Z,85.05
2022-10-19T00:57:52.762Z,85.31
2022-10-19T01:00:37.346Z,85.94
2022-10-19T01:03:21.557Z,85.83
2022-10-19T01:06:06.200Z,86.21
2022-10-19T01:08:49.586Z,85.36
2022-10-19T01:12:01.741Z,84.37
2022-10-19T01:15:20.595Z,84.41
2022-10-19T01:18:35.959Z,84.70
2022-10-19T01:21:26.155Z,85.35
2022-10-19T01:24:15.506Z,84.87
2022-10-19T01:28:04.296Z,86.96
2022-10-19T01:31:04.955Z,85.83
2022-10-19T01:34:06.663Z,87.29
2022-10-19T01:37:03.401Z,86.13
2022-10-19T01:39:56.579Z,84.53
2022-10-19T01:43:09.373Z,84.29
2022-10-19T01:46:03.726Z,84.38
2022-10-19T01:49:33.997Z,83.27
2022-10-19T01:52:21.483Z,83.81
2022-10-19T01:55:05.960Z,82.89
2022-10-19T01:57:59.239Z,83.16
2022-10-19T02:00:48.643Z,83.19
2022-10-19T02:03:35.222Z,83.24
2022-10-19T02:06:19.646Z,84.16
2022-10-19T02:09:03.300Z,83.40
2022-10-19T02:11:57.841Z,83.00
2022-10-19T02:14:50.326Z,82.93
2022-10-19T02:17:42.464Z,83.44
2022-10-19T02:20:28.502Z,84.01
2022-10-19T02:23:15.416Z,83.91
2022-10-19T02:25:59.777Z,83.20
2022-10-19T02:28:44.513Z,84.78
2022-10-19T02:31:27.989Z,85.23
2022-10-19T02:34:12.468Z,87.22
2022-10-19T02:36:56.416Z,86.14
2022-10-19T02:39:40.712Z,85.74
2022-10-19T02:42:58.474Z,84.79
2022-10-19T02:45:53.431Z,84.79
2022-10-19T02:48:40.544Z,84.30
2022-10-19T02:51:35.485Z,83.90
2022-10-19T02:54:18.830Z,84.31
2022-10-19T02:57:14.310Z,84.48
2022-10-19T02:59:57.970Z,84.15
2022-10-19T03:02:41.374Z,83.90
2022-10-19T03:05:24.732Z,84.12
2022-10-19T03:08:07.981Z,84.44
2022-10-19T03:10:51.158Z,84.97
2022-10-19T03:13:34.596Z,84.42
2022-10-19T03:16:18.722Z,85.25
2022-10-19T03:19:02.107Z,84.85
2022-10-19T03:21:45.486Z,85.21
2022-10-19T03:24:30.602Z,85.98
2022-10-19T03:27:13.968Z,86.54
2022-10-19T03:29:57.336Z,85.50
2022-10-19T03:32:40.801Z,85.92
2022-10-19T03:35:24.177Z,87.27
2022-10-19T03:38:07.526Z,87.02
2022-10-19T03:40:50.888Z,86.71
2022-10-19T03:43:34.872Z,86.41
2022-10-19T03:46:19.150Z,87.94
2022-10-19T03:49:04.188Z,88.42
2022-10-19T03:51:48.034Z,88.79
2022-10-19T03:54:31.408Z,87.52
2022-10-19T03:57:14.824Z,87.66
2022-10-19T03:59:58.183Z,87.13
2022-10-19T04:02:41.561Z,86.38
2022-10-19T04:05:24.946Z,86.56
2022-10-19T04:08:08.328Z,85.41
2022-10-19T04:10:51.691Z,86.91
2022-10-19T04:13:35.810Z,86.72
2022-10-19T04:16:21.448Z,85.90
2022-10-19T04:19:04.818Z,86.73
2022-10-19T04:21:49.693Z,85.56
2022-10-19T04:24:33.159Z,84.41
2022-10-19T04:27:16.614Z,84.45
2022-10-19T04:29:59.991Z,84.56
2022-10-19T04:32:43.349Z,85.10
2022-10-19T04:35:26.751Z,84.69
2022-10-19T04:38:10.144Z,85.69
2022-10-19T04:40:53.669Z,85.17
2022-10-19T04:43:37.985Z,85.34
2022-10-19T04:46:21.449Z,84.07
2022-10-19T04:49:06.818Z,84.03
2022-10-19T04:51:50.308Z,84.65
2022-10-19T04:54:33.654Z,86.05
2022-10-19T04:57:17.110Z,85.81
2022-10-19T05:00:00.567Z,84.85
2022-10-19T05:02:47.577Z,84.10
2022-10-19T05:05:33.201Z,84.22
2022-10-19T05:08:16.715Z,83.80
2022-10-19T05:11:11.330Z,83.12
2022-10-19T05:13:55.628Z,82.33
2022-10-19T05:16:39.085Z,83.16
2022-10-19T05:19:22.452Z,82.51
2022-10-19T05:22:05.794Z,84.03
2022-10-19T05:24:49.174Z,82.72
2022-10-19T05:27:34.011Z,83.13
2022-10-19T05:30:17.682Z,81.71
2022-10-19T05:33:01.055Z,81.65
2022-10-19T05:35:44.483Z,81.05
2022-10-19T05:38:30.069Z,81.61
2022-10-19T05:41:14.425Z,82.51
2022-10-19T05:44:01.117Z,83.05
2022-10-19T05:46:44.954Z,83.65
2022-10-19T05:49:28.783Z,85.54
2022-10-19T05:52:13.100Z,87.71
2022-10-19T05:54:58.343Z,88.29
2022-10-19T05:57:41.769Z,88.12
2022-10-19T06:00:25.166Z,88.99
2022-10-19T06:03:08.543Z,87.52
2022-10-19T06:05:53.526Z,88.23
2022-10-19T06:08:38.108Z,87.60
2022-10-19T06:11:25.423Z,88.03
2022-10-19T06:14:15.469Z,87.37
2022-10-19T06:16:58.877Z,87.74
2022-10-19T06:19:42.228Z,87.13
2022-10-19T06:22:25.583Z,87.47
2022-10-19T06:25:09.318Z,86.94
2022-10-19T06:27:53.188Z,86.62
2022-10-19T06:30:40.873Z,86.16
2022-10-19T06:33:24.432Z,85.56
2022-10-19T06:36:15.569Z,85.79
2022-10-19T06:39:01.658Z,85.92
2022-10-19T06:41:45.146Z,85.31
2022-10-19T06:44:35.044Z,85.13
2022-10-19T06:47:18.401Z,84.25
2022-10-19T06:50:04.083Z,84.55
2022-10-19T06:52:47.615Z,83.99
2022-10-19T06:55:30.969Z,84.38
2022-10-19T06:58:14.438Z,83.02
2022-10-19T07:01:02.189Z,82.86
2022-10-19T07:03:45.674Z,83.80
2022-10-19T07:06:29.082Z,83.70
2022-10-19T07:09:12.508Z,83.11
2022-10-19T07:11:55.853Z,82.70
2022-10-19T07:14:39.918Z,82.74
2022-10-19T07:17:23.304Z,82.76
2022-10-19T07:20:07.225Z,81.94
2022-10-19T07:22:50.652Z,83.66
2022-10-19T07:25:34.036Z,82.27
2022-10-19T07:28:17.379Z,83.78
2022-10-19T07:31:06.961Z,83.92
2022-10-19T07:33:55.855Z,84.15
2022-10-19T07:36:40.129Z,84.42
2022-10-19T07:39:23.650Z,83.51
2022-10-19T07:42:07.137Z,84.50
2022-10-19T07:44:50.488Z,84.19
2022-10-19T07:47:34.736Z,83.43
2022-10-19T07:50:18.360Z,83.28
2022-10-19T07:53:05.312Z,82.45
2022-10-19T07:55:48.771Z,83.11
2022-10-19T07:58:32.671Z,82.33
2022-10-19T08:01:32.211Z,82.12
2022-10-19T08:07:20.704Z,82.38
2022-10-19T08:10:05.198Z,81.27
2022-10-19T08:12:48.624Z,82.82
2022-10-19T08:15:32.711Z,82.29
2022-10-19T08:18:18.486Z,83.26
2022-10-19T08:21:03.114Z,82.12
2022-10-19T08:23:46.671Z,81.50
2022-10-19T08:26:32.764Z,81.24
2022-10-19T08:29:20.177Z,80.64
2022-10-19T08:32:03.936Z,81.64
2022-10-19T08:34:47.734Z,81.86
2022-10-19T08:37:44.091Z,81.84
2022-10-19T08:40:31.036Z,81.82
2022-10-19T08:43:37.103Z,82.25
2022-10-19T08:46:33.770Z,82.75
2022-10-19T08:49:23.331Z,82.30
2022-10-19T08:52:27.714Z,83.27
2022-10-19T08:55:20.580Z,83.71
2022-10-19T08:58:25.760Z,82.97
2022-10-19T09:01:20.761Z,81.77
2022-10-19T09:04:35.748Z,81.98
2022-10-19T09:07:45.043Z,81.80
2022-10-19T09:10:40.266Z,81.93
2022-10-19T09:14:00.570Z,82.57
2022-10-19T09:16:46.447Z,84.38
2022-10-19T09:19:32.086Z,82.27
2022-10-19T09:22:35.001Z,81.83
2022-10-19T09:25:25.723Z,81.59
2022-10-19T09:28:59.572Z,80.94
2022-10-19T09:31:43.551Z,79.90
2022-10-19T09:34:41.343Z,79.52
2022-10-19T09:37:26.737Z,78.98
2022-10-19T09:40:21.407Z,78.19
2022-10-19T09:43:20.963Z,78.30
2022-10-19T09:46:20.306Z,78.13
2022-10-19T09:49:05.577Z,76.41
2022-10-19T09:51:53.000Z,75.94
2022-10-19T09:54:39.783Z,76.06
2022-10-19T09:57:23.615Z,76.00
2022-10-19T10:00:07.303Z,75.97
2022-10-19T10:02:54.253Z,75.63
2022-10-19T10:05:40.383Z,73.25
2022-10-19T10:08:29.771Z,72.43
2022-10-19T10:11:22.891Z,70.31
2022-10-19T10:14:20.134Z,70.55
2022-10-19T10:20:30.494Z,69.50
2022-10-19T10:23:26.223Z,67.85
2022-10-19T10:26:19.975Z,66.50
2022-10-19T10:29:03.553Z,65.91
2022-10-19T10:54:22.977Z,64.67
2022-10-19T10:57:16.760Z,64.79
2022-10-19T11:00:17.628Z,61.14
2022-10-19T11:03:26.642Z,57.32
2022-10-19T11:06:12.471Z,58.56
2022-10-19T11:09:04.321Z,57.16
2022-10-19T11:11:51.772Z,56.14
2022-10-19T11:14:53.745Z,57.47
2022-10-19T11:17:52.973Z,59.14
2022-10-19T11:20:50.811Z,57.30
2022-10-19T11:23:51.667Z,57.60
2022-10-19T11:27:17.706Z,58.87
2022-10-19T11:30:14.998Z,59.15
2022-10-19T11:33:38.134Z,58.26
2022-10-19T11:36:53.889Z,56.52
2022-10-19T11:40:03.480Z,58.40
2022-10-19T11:43:23.525Z,57.36
2022-10-19T11:46:25.622Z,55.75
2022-10-19T11:49:50.923Z,56.80
2022-10-19T11:53:39.817Z,55.84
2022-10-19T11:56:58.495Z,56.00
2022-10-19T12:00:15.103Z,55.95
2022-10-19T12:03:23.962Z,55.28
2022-10-19T12:06:39.935Z,56.08
2022-10-19T12:09:28.705Z,57.00
2022-10-19T12:12:31.159Z,57.56
2022-10-19T12:15:43.548Z,57.66
2022-10-19T12:19:05.635Z,58.88
2022-10-19T12:21:50.894Z,57.97
2022-10-19T12:24:35.311Z,57.45
2022-10-19T12:27:35.838Z,57.41
2022-10-19T12:30:24.969Z,57.80
2022-10-19T12:33:56.846Z,56.62
2022-10-19T12:37:08.941Z,56.20
2022-10-19T12:40:27.709Z,56.85
2022-10-19T12:43:31.439Z,57.64
2022-10-19T12:47:00.773Z,57.31
2022-10-19T12:49:58.314Z,58.67
2022-10-19T12:52:49.267Z,57.93
2022-10-19T12:55:34.999Z,57.33
2022-10-19T12:58:24.053Z,57.35
2022-10-19T13:01:20.619Z,56.79
2022-10-19T13:04:14.040Z,57.58
2022-10-19T13:06:57.232Z,57.36
2022-10-19T13:09:48.434Z,55.67
2022-10-19T13:12:46.116Z,56.10
2022-10-19T13:15:50.780Z,56.34
2022-10-19T13:19:14.678Z,54.54
2022-10-19T13:22:00.893Z,55.47
2022-10-19T13:25:06.037Z,55.33
2022-10-19T13:28:02.475Z,54.20
2022-10-19T13:30:45.713Z,55.51
2022-10-19T13:33:29.075Z,55.39
2022-10-19T13:36:13.978Z,55.41
2022-10-19T13:39:13.972Z,57.15
2022-10-19T13:41:58.637Z,55.18
2022-10-19T13:44:47.281Z,56.45
2022-10-19T13:47:40.827Z,57.28
2022-10-19T13:50:35.938Z,56.76
2022-10-19T13:53:47.106Z,55.75
2022-10-19T13:57:10.876Z,56.88
2022-10-19T14:00:21.810Z,56.87
2022-10-19T14:03:24.080Z,55.25
2022-10-19T14:06:27.633Z,57.12
2022-10-19T14:09:27.715Z,54.76
2022-10-19T14:12:29.805Z,54.90
2022-10-19T14:15:29.674Z,55.10
2022-10-19T14:18:30.163Z,55.98
2022-10-19T14:21:13.531Z,56.91
2022-10-19T14:23:57.228Z,55.75
2022-10-19T14:26:40.870Z,55.66
2022-10-19T14:29:24.424Z,55.15
2022-10-19T14:32:10.993Z,53.91
2022-10-19T14:38:19.950Z,55.52
2022-10-19T14:41:27.465Z,54.04
2022-10-19T14:44:44.018Z,55.13
2022-10-19T14:47:27.474Z,53.95
2022-10-19T14:50:11.800Z,53.79
2022-10-19T14:53:33.000Z,53.71
2022-10-19T14:56:33.033Z,53.10
2022-10-19T14:59:29.094Z,54.37
2022-10-19T15:02:21.020Z,54.45
2022-10-19T15:05:15.753Z,55.15
2022-10-19T15:08:34.860Z,56.27
2022-10-19T15:11:29.453Z,55.35
2022-10-19T15:14:19.124Z,56.52
2022-10-19T15:17:05.873Z,55.73
2022-10-19T15:19:49.285Z,56.70
2022-10-19T15:22:32.638Z,56.86
2022-10-19T15:25:34.024Z,55.88
2022-10-19T15:28:39.165Z,56.14
2022-10-19T15:31:30.137Z,56.13
2022-10-19T15:34:27.796Z,59.91
2022-10-19T15:37:22.277Z,60.39
2022-10-19T15:40:23.923Z,59.38
2022-10-19T15:43:35.481Z,59.57
2022-10-19T15:46:31.604Z,59.27
2022-10-19T15:49:42.854Z,59.07
2022-10-19T15:52:37.128Z,58.16
2022-10-19T15:55:20.458Z,58.66
2022-10-19T15:58:03.830Z,57.97
2022-10-19T16:00:47.383Z,57.87
2022-10-19T16:03:30.890Z,57.47
2022-10-19T16:06:15.574Z,57.92
2022-10-19T16:09:03.489Z,58.05
2022-10-19T16:11:47.504Z,58.02
2022-10-19T16:14:33.132Z,57.90
2022-10-19T16:17:20.208Z,58.71
2022-10-19T16:20:06.379Z,58.02
2022-10-19T16:22:49.989Z,58.24
2022-10-19T16:25:33.344Z,59.16
2022-10-19T16:28:17.403Z,59.97
2022-10-19T16:31:00.765Z,59.61
2022-10-19T16:33:44.446Z,60.33
2022-10-19T16:36:27.952Z,60.23
2022-10-19T16:39:11.356Z,60.92
2022-10-19T16:41:54.746Z,59.96
2022-10-19T16:44:38.116Z,61.85
2022-10-19T16:47:21.626Z,62.25
2022-10-19T16:50:06.794Z,60.55
2022-10-19T16:53:10.421Z,60.91
2022-10-19T16:56:09.457Z,61.27
2022-10-19T16:59:06.205Z,61.28
2022-10-19T17:01:49.871Z,61.05
2022-10-19T17:04:33.347Z,61.34
2022-10-19T17:07:17.480Z,61.72
2022-10-19T17:10:00.863Z,61.88
2022-10-19T17:12:44.383Z,61.55
2022-10-19T17:15:42.659Z,61.92
2022-10-19T17:18:26.723Z,61.95
2022-10-19T17:21:20.234Z,62.26
2022-10-19T17:24:05.878Z,63.73
2022-10-19T17:26:54.474Z,63.66
2022-10-19T17:29:37.889Z,62.96
2022-10-19T17:32:21.318Z,61.97
2022-10-19T17:35:05.193Z,62.62
2022-10-19T17:37:48.668Z,65.09
2022-10-19T17:40:33.108Z,65.92
2022-10-19T17:43:19.483Z,65.69
2022-10-19T17:46:06.474Z,63.94
2022-10-19T17:48:50.548Z,64.24
2022-10-19T17:51:36.535Z,64.44
2022-10-19T17:54:20.250Z,64.36
2022-10-19T17:57:03.673Z,64.66
2022-10-19T17:59:52.963Z,65.80
2022-10-19T18:02:36.625Z,66.16
2022-10-19T18:05:20.004Z,66.93
2022-10-19T18:08:03.374Z,66.52
2022-10-19T18:10:46.740Z,66.53
2022-10-19T18:13:31.316Z,67.53
2022-10-19T18:16:20.097Z,66.52
2022-10-19T18:19:05.271Z,66.35
2022-10-19T18:21:49.241Z,66.00
2022-10-19T18:24:34.689Z,66.13
2022-10-19T18:27:18.096Z,65.94
2022-10-19T18:30:01.522Z,66.84
2022-10-19T18:32:48.887Z,65.73
2022-10-19T18:35:40.214Z,66.29
2022-10-19T18:38:23.606Z,66.25
2022-10-19T18:44:15.926Z,66.66
2022-10-19T18:46:59.533Z,67.26
2022-10-19T18:49:42.956Z,66.21
2022-10-19T18:52:26.337Z,66.67
2022-10-19T18:55:10.175Z,66.74
2022-10-19T18:57:53.816Z,68.55
2022-10-19T19:00:39.840Z,67.82
2022-10-19T19:03:26.047Z,68.42
2022-10-19T19:06:13.859Z,68.75
2022-10-19T19:09:00.053Z,68.55
2022-10-19T19:11:43.521Z,68.23
2022-10-19T19:14:26.895Z,68.33
2022-10-19T19:17:10.387Z,68.98
2022-10-19T19:19:53.854Z,68.73
2022-10-19T19:22:37.732Z,68.17
2022-10-19T19:25:21.944Z,67.83
2022-10-19T19:28:05.324Z,67.98
2022-10-19T19:30:48.811Z,68.14
2022-10-19T19:33:32.830Z,68.39
2022-10-19T19:36:18.619Z,69.02
2022-10-19T19:39:02.321Z,68.67
2022-10-19T19:41:46.448Z,68.40
2022-10-19T19:44:29.930Z,68.82
2022-10-19T19:47:13.373Z,68.51
2022-10-19T19:49:56.870Z,68.15
2022-10-19T19:52:40.710Z,69.12
2022-10-19T19:55:24.716Z,68.96
2022-10-19T19:58:08.364Z,69.99
2022-10-19T20:00:51.732Z,70.68
2022-10-19T20:03:35.120Z,70.07
2022-10-19T20:06:22.211Z,70.09
2022-10-19T20:09:09.210Z,70.81
2022-10-19T20:11:52.632Z,69.86
2022-10-19T20:14:36.383Z,69.75
2022-10-19T20:17:26.425Z,69.54
2022-10-19T20:20:13.079Z,70.77
2022-10-19T20:22:56.708Z,69.53
2022-10-19T20:25:40.227Z,70.13
2022-10-19T20:28:28.067Z,70.23
2022-10-19T20:31:13.486Z,70.16
2022-10-19T20:33:57.047Z,69.77
2022-10-19T20:36:40.698Z,70.26
2022-10-19T20:39:24.085Z,69.69
2022-10-19T20:42:07.471Z,70.31
2022-10-19T20:44:51.110Z,69.89
2022-10-19T20:47:34.445Z,70.35
2022-10-19T20:50:20.591Z,69.80
2022-10-19T20:53:05.418Z,69.47
2022-10-19T20:55:48.872Z,71.06
2022-10-19T20:58:33.983Z,70.28
2022-10-19T21:01:19.304Z,70.64
2022-10-19T21:04:06.364Z,70.58
2022-10-19T21:06:52.160Z,69.87
2022-10-19T21:09:36.004Z,70.35
2022-10-19T21:12:19.498Z,70.35
2022-10-19T21:15:02.958Z,71.34
2022-10-19T21:17:47.671Z,71.47
2022-10-19T21:20:31.081Z,70.75
2022-10-19T21:23:14.731Z,70.44
2022-10-19T21:25:58.391Z,70.83
2022-10-19T21:28:50.594Z,71.50
2022-10-19T21:31:34.024Z,71.08
2022-10-19T21:34:24.580Z,71.75
2022-10-19T21:37:07.960Z,71.43
2022-10-19T21:39:51.319Z,73.48
2022-10-19T21:42:34.697Z,72.97
2022-10-19T21:45:29.892Z,73.01
2022-10-19T21:48:14.382Z,73.44
2022-10-19T21:50:57.779Z,73.88
2022-10-19T21:53:41.224Z,72.99
2022-10-19T21:56:24.741Z,72.58
2022-10-19T21:59:08.211Z,71.57
2022-10-19T22:01:51.734Z,71.08
2022-10-19T22:04:35.145Z,71.28
2022-10-19T22:07:19.227Z,72.76
2022-10-19T22:10:02.962Z,71.87
2022-10-19T22:12:46.403Z,71.66
2022-10-19T22:15:29.746Z,71.47
2022-10-19T22:18:13.219Z,71.62
2022-10-19T22:20:56.613Z,71.52
2022-10-19T22:23:40.296Z,72.66
2022-10-19T22:26:33.968Z,71.75
2022-10-19T22:29:17.535Z,72.29
2022-10-19T22:32:00.953Z,72.25
2022-10-19T22:34:44.321Z,72.40
2022-10-19T22:37:27.859Z,75.35
2022-10-19T22:40:11.648Z,78.87
2022-10-19T22:42:55.032Z,82.30
2022-10-19T22:45:38.381Z,82.33
2022-10-19T22:48:21.815Z,81.22
2022-10-19T22:51:05.655Z,78.11
2022-10-19T22:53:49.087Z,76.90
2022-10-19T22:56:32.488Z,75.88
2022-10-19T22:59:15.888Z,78.02
2022-10-19T23:01:59.439Z,77.83
2022-10-19T23:04:42.843Z,76.78
2022-10-19T23:07:26.216Z,77.82
2022-10-19T23:10:09.932Z,77.79
2022-10-19T23:12:54.675Z,78.56
2022-10-19T23:15:41.702Z,79.45
2022-10-19T23:18:29.903Z,79.30
2022-10-19T23:21:14.991Z,78.50
2022-10-19T23:23:58.391Z,79.71
2022-10-19T23:26:41.744Z,79.37
2022-10-19T23:29:25.103Z,79.29
2022-10-19T23:32:08.417Z,78.94
2022-10-19T23:34:51.991Z,78.84
2022-10-19T23:37:35.991Z,77.94
2022-10-19T23:40:19.539Z,76.94
2022-10-19T23:43:02.988Z,75.91
2022-10-19T23:45:46.512Z,76.61
2022-10-19T23:48:29.977Z,75.74
2022-10-19T23:51:17.529Z,75.19
2022-10-19T23:54:00.871Z,75.78
2022-10-19T23:56:44.292Z,75.63
2022-10-19T23:59:27.905Z,74.99
